createdAt,value
2022-11-19T00:01:44.873Z,508.80
2022-11-19T00:04:11.301Z,487.03
2022-11-19T00:06:37.901Z,531.43
2022-11-19T00:09:04.288Z,530.50
2022-11-19T00:11:30.743Z,479.93
2022-11-19T00:13:57.164Z,504.50
2022-11-19T00:16:23.601Z,516.80
2022-11-19T00:18:50.000Z,503.30
2022-11-19T00:21:16.418Z,407.43
2022-11-19T00:23:42.813Z,528.97
2022-11-19T00:26:09.230Z,458.30
2022-11-19T00:28:35.660Z,421.13
2022-11-19T00:31:02.073Z,532.27
2022-11-19T00:33:28.512Z,527.87
2022-11-19T00:35:54.926Z,397.67
2022-11-19T00:38:21.356Z,460.93
2022-11-19T00:40:47.753Z,539.77
2022-11-19T00:43:14.145Z,441.87
2022-11-19T00:45:40.589Z,548.90
2022-11-19T00:48:06.985Z,512.57
2022-11-19T00:50:33.401Z,525.83
2022-11-19T00:52:59.807Z,545.27
2022-11-19T00:55:26.218Z,387.60
2022-11-19T00:57:52.622Z,488.07
2022-11-19T01:00:19.026Z,542.33
2022-11-19T01:02:45.612Z,514.17
2022-11-19T01:05:12.038Z,518.23
2022-11-19T01:07:38.462Z,394.50
2022-11-19T01:10:04.865Z,495.90
2022-11-19T01:12:31.457Z,520.73
2022-11-19T01:14:57.877Z,498.23
2022-11-19T01:17:24.276Z,505.53
2022-11-19T01:19:50.909Z,524.37
2022-11-19T01:22:17.318Z,525.47
2022-11-19T01:24:43.734Z,538.30
2022-11-19T01:27:10.125Z,542.20
2022-11-19T01:29:36.508Z,449.67
2022-11-19T01:32:02.899Z,512.47
2022-11-19T01:34:29.302Z,535.77
2022-11-19T01:36:55.707Z,532.90
2022-11-19T01:39:22.303Z,491.53
2022-11-19T01:41:48.749Z,544.07
2022-11-19T01:44:15.137Z,488.37
2022-11-19T01:46:41.566Z,538.33
2022-11-19T01:49:07.963Z,383.03
2022-11-19T01:51:34.366Z,391.30
2022-11-19T01:54:00.897Z,351.13
2022-11-19T01:56:27.305Z,357.60
2022-11-19T01:58:53.702Z,345.53
2022-11-19T02:01:20.239Z,351.60
2022-11-19T02:03:46.669Z,340.87
2022-11-19T02:06:13.095Z,353.77
2022-11-19T02:08:39.494Z,361.77
2022-11-19T02:11:05.906Z,359.00
2022-11-19T02:13:32.312Z,352.30
2022-11-19T02:15:58.737Z,373.87
2022-11-19T02:18:25.180Z,357.60
2022-11-19T02:20:51.582Z,371.67
2022-11-19T02:23:17.970Z,373.73
2022-11-19T02:25:44.389Z,361.53
2022-11-19T02:28:10.790Z,380.73
2022-11-19T02:30:37.216Z,382.30
2022-11-19T02:33:03.610Z,391.13
2022-11-19T02:35:30.033Z,368.33
2022-11-19T02:37:56.433Z,376.53
2022-11-19T02:40:22.844Z,376.73
2022-11-19T02:42:49.241Z,385.00
2022-11-19T02:45:15.643Z,390.53
2022-11-19T02:47:42.034Z,406.60
2022-11-19T02:50:08.441Z,394.83
2022-11-19T02:52:34.842Z,403.20
2022-11-19T02:55:01.231Z,418.47
2022-11-19T02:57:27.719Z,451.93
2022-11-19T02:59:54.134Z,567.37
2022-11-19T03:02:20.523Z,560.10
2022-11-19T03:04:46.919Z,544.57
2022-11-19T03:07:13.403Z,521.63
2022-11-19T03:09:39.882Z,508.30
2022-11-19T03:12:06.309Z,391.13
2022-11-19T03:14:32.721Z,394.83
2022-11-19T03:16:59.314Z,390.00
2022-11-19T03:19:25.721Z,387.57
2022-11-19T03:21:52.130Z,379.83
2022-11-19T03:24:18.529Z,400.90
2022-11-19T03:26:44.941Z,405.33
2022-11-19T03:29:11.341Z,416.20
2022-11-19T03:31:37.746Z,503.07
2022-11-19T03:34:04.133Z,532.23
2022-11-19T03:36:30.532Z,558.03
2022-11-19T03:38:56.927Z,342.97
2022-11-19T03:41:23.339Z,342.13
2022-11-19T03:43:49.749Z,336.77
2022-11-19T03:46:16.162Z,352.80
2022-11-19T03:48:42.606Z,354.07
2022-11-19T03:51:09.072Z,371.30
2022-11-19T03:53:35.659Z,373.60
2022-11-19T03:56:02.065Z,378.57
2022-11-19T03:58:28.457Z,635.47
2022-11-19T04:00:54.862Z,407.83
2022-11-19T04:03:21.253Z,389.87
2022-11-19T04:05:47.663Z,427.23
2022-11-19T04:08:14.236Z,389.80
2022-11-19T04:10:40.650Z,401.33
2022-11-19T04:13:07.043Z,403.30
2022-11-19T04:15:33.452Z,392.30
2022-11-19T04:17:59.849Z,376.53
2022-11-19T04:20:26.253Z,407.60
2022-11-19T04:22:52.648Z,392.40
2022-11-19T04:25:19.031Z,368.80
2022-11-19T04:27:45.458Z,387.87
2022-11-19T04:30:11.854Z,405.47
2022-11-19T04:32:38.248Z,395.83
2022-11-19T04:35:04.639Z,417.53
2022-11-19T04:37:31.049Z,418.30
2022-11-19T04:39:57.447Z,409.80
2022-11-19T04:42:23.850Z,410.17
2022-11-19T04:44:50.250Z,411.27
2022-11-19T04:47:16.657Z,412.67
2022-11-19T04:49:43.044Z,425.67
2022-11-19T04:52:09.561Z,422.10
2022-11-19T04:54:35.952Z,404.10
2022-11-19T04:57:02.351Z,429.63
2022-11-19T04:59:28.749Z,414.83
2022-11-19T05:01:55.208Z,430.37
2022-11-19T05:04:21.852Z,419.30
2022-11-19T05:06:48.279Z,408.53
2022-11-19T05:09:14.981Z,422.00
2022-11-19T05:11:41.389Z,435.97
2022-11-19T05:14:07.759Z,385.37
2022-11-19T05:16:34.170Z,402.63
2022-11-19T05:19:00.756Z,407.23
2022-11-19T05:21:27.170Z,414.03
2022-11-19T05:23:53.577Z,424.30
2022-11-19T05:26:20.034Z,426.40
2022-11-19T05:28:46.440Z,427.47
2022-11-19T05:31:12.852Z,421.03
2022-11-19T05:33:39.249Z,411.50
2022-11-19T05:36:05.871Z,436.97
2022-11-19T05:38:32.408Z,421.73
2022-11-19T05:40:58.804Z,422.33
2022-11-19T05:43:25.208Z,425.13
2022-11-19T05:45:51.797Z,429.37
2022-11-19T05:48:18.384Z,428.20
2022-11-19T05:50:44.770Z,449.47
2022-11-19T05:53:11.160Z,529.37
2022-11-19T05:55:37.548Z,452.23
2022-11-19T05:58:03.946Z,530.43
2022-11-19T06:00:30.339Z,395.70
2022-11-19T06:02:56.986Z,398.43
2022-11-19T06:05:23.427Z,417.77
2022-11-19T06:07:49.813Z,542.77
2022-11-19T06:10:16.206Z,524.00
2022-11-19T06:12:45.522Z,509.53
2022-11-19T06:15:12.486Z,513.00
2022-11-19T06:17:39.060Z,522.93
2022-11-19T06:20:05.660Z,449.20
2022-11-19T06:22:32.046Z,449.10
2022-11-19T06:24:58.434Z,464.07
2022-11-19T06:27:24.830Z,497.97
2022-11-19T06:29:56.068Z,511.93
2022-11-19T06:32:22.868Z,516.40
2022-11-19T06:34:49.266Z,510.83
2022-11-19T06:37:15.660Z,493.80
2022-11-19T06:39:42.048Z,490.57
2022-11-19T06:42:08.448Z,503.77
2022-11-19T06:44:34.835Z,489.93
2022-11-19T06:47:01.232Z,504.37
2022-11-19T06:49:27.616Z,496.97
2022-11-19T06:51:54.095Z,506.87
2022-11-19T06:54:20.490Z,508.57
2022-11-19T06:56:46.889Z,479.67
2022-11-19T06:59:13.288Z,482.73
2022-11-19T07:01:39.697Z,491.63
2022-11-19T07:04:06.125Z,484.30
2022-11-19T07:06:32.535Z,513.87
2022-11-19T07:08:58.923Z,511.80
2022-11-19T07:11:25.321Z,484.43
2022-11-19T07:13:51.754Z,519.20
2022-11-19T07:16:18.150Z,505.33
2022-11-19T07:18:44.541Z,500.07
2022-11-19T07:21:11.083Z,500.00
2022-11-19T07:23:37.485Z,501.27
2022-11-19T07:26:03.882Z,507.43
2022-11-19T07:28:30.472Z,510.63
2022-11-19T07:30:56.890Z,501.00
2022-11-19T07:33:23.306Z,489.07
2022-11-19T07:35:49.697Z,499.50
2022-11-19T07:38:16.078Z,502.33
2022-11-19T07:40:42.453Z,491.47
2022-11-19T07:43:08.841Z,498.33
2022-11-19T07:45:35.394Z,580.53
2022-11-19T07:48:01.789Z,636.17
2022-11-19T07:50:28.169Z,522.57
2022-11-19T07:52:54.565Z,519.50
2022-11-19T07:55:21.137Z,549.43
2022-11-19T07:57:47.535Z,553.97
2022-11-19T08:00:13.924Z,571.90
2022-11-19T08:02:40.332Z,561.43
2022-11-19T08:05:06.724Z,579.50
2022-11-19T08:07:33.188Z,586.23
2022-11-19T08:09:59.641Z,544.90
2022-11-19T08:12:26.025Z,569.93
2022-11-19T08:14:52.424Z,561.73
2022-11-19T08:17:18.887Z,565.50
2022-11-19T08:19:45.305Z,565.17
2022-11-19T08:22:11.701Z,568.70
2022-11-19T08:24:38.104Z,566.27
2022-11-19T08:27:04.519Z,580.77
2022-11-19T08:29:30.919Z,570.17
2022-11-19T08:31:57.338Z,563.93
2022-11-19T08:34:23.763Z,569.60
2022-11-19T08:36:50.187Z,576.83
2022-11-19T08:39:16.591Z,569.10
2022-11-19T08:41:43.005Z,578.47
2022-11-19T08:44:09.392Z,467.60
2022-11-19T08:46:35.781Z,461.47
2022-11-19T08:49:02.201Z,484.40
2022-11-19T08:51:28.602Z,509.33
2022-11-19T08:53:54.991Z,569.73
2022-11-19T08:56:21.463Z,558.90
2022-11-19T08:58:47.890Z,571.03
2022-11-19T09:01:14.326Z,564.67
2022-11-19T09:03:40.759Z,572.13
2022-11-19T09:06:07.158Z,569.50
2022-11-19T09:08:33.576Z,567.30
2022-11-19T09:10:59.989Z,567.20
2022-11-19T09:13:26.386Z,488.50
2022-11-19T09:15:52.782Z,476.13
2022-11-19T09:18:19.171Z,468.90
2022-11-19T09:20:45.568Z,482.40
2022-11-19T09:23:12.093Z,485.50
2022-11-19T09:25:38.476Z,502.17
2022-11-19T09:28:04.879Z,519.87
2022-11-19T09:30:31.288Z,533.13
2022-11-19T09:32:57.738Z,538.80
2022-11-19T09:35:24.146Z,549.10
2022-11-19T09:37:50.546Z,555.87
2022-11-19T09:40:16.934Z,562.93
2022-11-19T09:42:43.421Z,579.57
2022-11-19T09:45:09.798Z,570.10
2022-11-19T09:47:36.188Z,560.23
2022-11-19T09:50:02.607Z,563.33
2022-11-19T09:52:29.030Z,558.63
2022-11-19T09:54:55.406Z,559.87
2022-11-19T09:57:21.807Z,562.60
2022-11-19T09:59:48.219Z,557.40
2022-11-19T10:02:14.638Z,548.43
2022-11-19T10:04:41.040Z,545.37
2022-11-19T10:07:07.507Z,561.60
2022-11-19T10:09:33.917Z,631.88
2022-11-19T10:12:00.401Z,593.33
2022-11-19T10:14:26.997Z,593.07
2022-11-19T10:16:53.381Z,586.37
2022-11-19T10:19:19.858Z,595.10
2022-11-19T10:21:46.273Z,579.53
2022-11-19T10:24:12.681Z,569.53
2022-11-19T10:26:39.066Z,577.43
2022-11-19T10:29:05.480Z,581.00
2022-11-19T10:31:31.869Z,573.10
2022-11-19T10:33:58.263Z,576.40
2022-11-19T10:36:24.673Z,576.60
2022-11-19T10:38:51.493Z,583.00
2022-11-19T10:41:17.907Z,536.60
2022-11-19T10:43:44.359Z,571.50
2022-11-19T10:46:10.744Z,562.57
2022-11-19T10:48:37.153Z,581.57
2022-11-19T10:51:03.530Z,575.97
2022-11-19T10:53:29.963Z,569.43
2022-11-19T10:55:56.342Z,571.77
2022-11-19T10:58:22.734Z,572.93
2022-11-19T11:00:49.153Z,578.10
2022-11-19T11:03:15.572Z,578.37
2022-11-19T11:05:41.970Z,579.90
2022-11-19T11:08:08.387Z,581.80
2022-11-19T11:10:34.796Z,585.00
2022-11-19T11:13:01.201Z,579.60
2022-11-19T11:15:27.624Z,585.80
2022-11-19T11:17:54.165Z,592.57
2022-11-19T11:20:20.559Z,581.70
2022-11-19T11:22:46.960Z,567.57
2022-11-19T11:25:13.343Z,562.33
2022-11-19T11:27:39.767Z,473.23
2022-11-19T11:30:06.174Z,471.23
2022-11-19T11:32:32.585Z,479.83
2022-11-19T11:35:02.334Z,493.50
2022-11-19T11:37:32.915Z,511.57
2022-11-19T11:39:59.329Z,575.00
2022-11-19T11:42:25.709Z,570.37
2022-11-19T11:44:52.106Z,574.57
2022-11-19T11:47:18.509Z,577.17
2022-11-19T11:49:44.923Z,586.83
2022-11-19T11:52:11.319Z,572.87
2022-11-19T11:54:37.772Z,584.57
2022-11-19T11:57:04.163Z,571.57
2022-11-19T11:59:30.727Z,573.83
2022-11-19T12:01:57.135Z,569.63
2022-11-19T12:04:23.553Z,568.60
2022-11-19T12:06:49.955Z,571.53
2022-11-19T12:09:16.359Z,532.63
2022-11-19T12:11:42.770Z,511.40
2022-11-19T12:14:11.096Z,513.83
2022-11-19T12:16:37.901Z,523.50
2022-11-19T12:19:04.302Z,521.60
2022-11-19T12:21:30.691Z,541.30
2022-11-19T12:23:57.085Z,554.90
2022-11-19T12:26:23.486Z,568.27
2022-11-19T12:28:49.874Z,568.90
2022-11-19T12:31:16.265Z,570.90
2022-11-19T12:33:43.381Z,574.20
2022-11-19T12:36:09.754Z,575.30
2022-11-19T12:38:36.164Z,570.50
2022-11-19T12:41:02.547Z,582.60
2022-11-19T12:43:28.936Z,569.87
2022-11-19T12:45:55.355Z,509.27
2022-11-19T12:48:21.755Z,541.03
2022-11-19T12:50:48.165Z,559.20
2022-11-19T12:53:14.544Z,576.00
2022-11-19T12:55:40.940Z,559.83
2022-11-19T12:58:07.370Z,568.70
2022-11-19T13:00:39.581Z,550.60
2022-11-19T13:03:07.278Z,555.77
2022-11-19T13:05:33.671Z,549.23
2022-11-19T13:08:00.057Z,557.00
2022-11-19T13:10:26.489Z,553.93
2022-11-19T13:12:52.888Z,544.47
2022-11-19T13:15:19.286Z,548.73
2022-11-19T13:17:45.686Z,553.30
2022-11-19T13:20:12.088Z,551.13
2022-11-19T13:22:38.478Z,543.47
2022-11-19T13:25:04.870Z,565.93
2022-11-19T13:27:31.281Z,560.43
2022-11-19T13:29:57.680Z,548.83
2022-11-19T13:32:24.068Z,501.13
2022-11-19T13:34:50.471Z,504.83
2022-11-19T13:37:16.862Z,486.67
2022-11-19T13:39:43.286Z,510.03
2022-11-19T13:42:09.678Z,515.97
2022-11-19T13:44:36.061Z,538.23
2022-11-19T13:47:02.456Z,531.43
2022-11-19T13:49:28.854Z,542.10
2022-11-19T13:51:55.262Z,547.13
2022-11-19T13:54:21.674Z,555.73
2022-11-19T13:56:48.069Z,551.53
2022-11-19T13:59:14.471Z,562.37
2022-11-19T14:01:40.931Z,552.63
2022-11-19T14:04:07.422Z,553.30
2022-11-19T14:06:33.808Z,554.60
2022-11-19T14:09:00.230Z,563.10
2022-11-19T14:11:26.616Z,562.60
2022-11-19T14:13:53.048Z,554.00
2022-11-19T14:16:19.435Z,552.57
2022-11-19T14:18:48.971Z,538.20
2022-11-19T14:21:17.986Z,541.20
2022-11-19T14:23:44.391Z,538.33
2022-11-19T14:26:10.782Z,553.40
2022-11-19T14:28:37.194Z,548.90
2022-11-19T14:31:03.590Z,549.27
2022-11-19T14:33:29.992Z,561.53
2022-11-19T14:35:56.373Z,558.30
2022-11-19T14:38:22.760Z,554.13
2022-11-19T14:40:49.169Z,555.13
2022-11-19T14:43:15.571Z,550.03
2022-11-19T14:45:43.136Z,551.10
2022-11-19T14:48:09.527Z,562.23
2022-11-19T14:50:35.943Z,563.53
2022-11-19T14:53:02.335Z,539.30
2022-11-19T14:55:28.735Z,549.20
2022-11-19T14:57:55.123Z,546.27
2022-11-19T15:00:21.516Z,559.20
2022-11-19T15:02:47.915Z,562.17
2022-11-19T15:05:14.305Z,561.27
2022-11-19T15:07:40.744Z,564.37
2022-11-19T15:10:07.249Z,553.33
2022-11-19T15:12:33.637Z,554.10
2022-11-19T15:15:00.046Z,557.37
2022-11-19T15:17:26.430Z,553.83
2022-11-19T15:19:52.948Z,547.87
2022-11-19T15:22:19.342Z,555.57
2022-11-19T15:24:46.190Z,564.73
2022-11-19T15:27:12.594Z,571.97
2022-11-19T15:29:39.012Z,570.10
2022-11-19T15:32:05.399Z,564.83
2022-11-19T15:34:48.733Z,566.63
2022-11-19T15:37:18.198Z,577.23
2022-11-19T15:39:44.613Z,570.33
2022-11-19T15:42:11.000Z,554.77
2022-11-19T15:44:37.405Z,573.03
2022-11-19T15:47:03.799Z,570.00
2022-11-19T15:49:30.219Z,565.97
2022-11-19T15:51:56.617Z,549.77
2022-11-19T15:54:23.021Z,517.97
2022-11-19T15:56:49.415Z,527.13
2022-11-19T15:59:15.799Z,558.10
2022-11-19T16:01:42.275Z,547.93
2022-11-19T16:04:08.775Z,567.30
2022-11-19T16:06:35.152Z,568.57
2022-11-19T16:09:01.538Z,559.73
2022-11-19T16:11:27.965Z,571.53
2022-11-19T16:13:54.370Z,573.73
2022-11-19T16:16:20.767Z,578.60
2022-11-19T16:18:47.176Z,544.47
2022-11-19T16:21:13.577Z,560.73
2022-11-19T16:23:39.965Z,546.07
2022-11-19T16:26:06.444Z,547.70
2022-11-19T16:28:32.843Z,570.87
2022-11-19T16:30:59.248Z,581.10
2022-11-19T16:33:25.638Z,568.80
2022-11-19T16:35:53.542Z,561.50
2022-11-19T16:38:20.201Z,487.40
2022-11-19T16:40:46.600Z,495.93
2022-11-19T16:43:12.990Z,517.63
2022-11-19T16:45:39.408Z,568.73
2022-11-19T16:48:05.799Z,524.23
2022-11-19T16:50:32.211Z,557.20
2022-11-19T16:52:58.628Z,528.13
2022-11-19T16:55:25.034Z,558.93
2022-11-19T16:57:51.443Z,485.50
2022-11-19T17:00:17.939Z,509.57
2022-11-19T17:02:44.336Z,553.70
2022-11-19T17:05:10.866Z,497.87
2022-11-19T17:07:37.433Z,526.53
2022-11-19T17:10:04.127Z,523.17
2022-11-19T17:12:30.558Z,541.30
2022-11-19T17:14:56.961Z,533.90
2022-11-19T17:17:23.358Z,514.90
2022-11-19T17:19:49.758Z,535.80
2022-11-19T17:22:16.245Z,543.00
2022-11-19T17:24:42.659Z,563.70
2022-11-19T17:27:09.073Z,549.13
2022-11-19T17:29:35.579Z,565.00
2022-11-19T17:32:02.023Z,526.83
2022-11-19T17:34:28.428Z,548.70
2022-11-19T17:36:54.854Z,526.80
2022-11-19T17:39:25.298Z,525.27
2022-11-19T17:41:52.146Z,543.63
2022-11-19T17:44:18.879Z,544.07
2022-11-19T17:46:45.665Z,547.33
2022-11-19T17:49:12.068Z,552.00
2022-11-19T17:51:38.485Z,559.60
2022-11-19T17:54:04.905Z,570.10
2022-11-19T17:56:31.444Z,569.87
2022-11-19T17:58:57.853Z,564.27
2022-11-19T18:01:24.319Z,538.00
2022-11-19T18:03:50.758Z,568.27
2022-11-19T18:06:17.154Z,568.10
2022-11-19T18:08:43.566Z,572.67
2022-11-19T18:11:09.993Z,586.30
2022-11-19T18:13:36.393Z,571.27
2022-11-19T18:16:03.266Z,559.87
2022-11-19T18:18:29.666Z,575.57
2022-11-19T18:21:01.676Z,504.23
2022-11-19T18:23:28.476Z,570.07
2022-11-19T18:25:54.875Z,556.30
2022-11-19T18:28:21.279Z,544.53
2022-11-19T18:30:47.710Z,561.77
2022-11-19T18:33:14.122Z,572.57
2022-11-19T18:35:40.515Z,569.67
2022-11-19T18:38:06.902Z,574.57
2022-11-19T18:40:33.303Z,544.43
2022-11-19T18:42:59.697Z,567.17
2022-11-19T18:45:26.094Z,585.63
2022-11-19T18:47:52.479Z,587.40
2022-11-19T18:50:18.872Z,555.40
2022-11-19T18:52:45.265Z,552.03
2022-11-19T18:55:11.683Z,561.73
2022-11-19T18:57:38.078Z,572.70
2022-11-19T19:00:04.468Z,559.50
2022-11-19T19:02:30.861Z,575.20
2022-11-19T19:04:57.445Z,565.27
2022-11-19T19:07:23.940Z,580.90
2022-11-19T19:09:50.378Z,572.00
2022-11-19T19:12:16.779Z,576.03
2022-11-19T19:14:43.188Z,471.03
2022-11-19T19:17:09.611Z,472.40
2022-11-19T19:19:37.085Z,472.37
2022-11-19T19:22:03.497Z,471.00
2022-11-19T19:24:29.937Z,478.83
2022-11-19T19:26:56.347Z,482.10
2022-11-19T19:29:22.964Z,486.10
2022-11-19T19:31:49.516Z,483.40
2022-11-19T19:34:16.897Z,478.40
2022-11-19T19:36:46.339Z,493.70
2022-11-19T19:39:15.331Z,518.13
2022-11-19T19:41:41.730Z,652.43
2022-11-19T19:44:08.137Z,545.50
2022-11-19T19:46:34.551Z,543.10
2022-11-19T19:49:00.943Z,510.90
2022-11-19T19:51:27.354Z,522.40
2022-11-19T19:53:53.804Z,528.27
2022-11-19T19:56:20.200Z,523.20
2022-11-19T19:58:46.593Z,529.63
2022-11-19T20:01:12.975Z,539.80
2022-11-19T20:03:39.362Z,541.60
2022-11-19T20:06:05.748Z,552.87
2022-11-19T20:08:32.141Z,517.30
2022-11-19T20:10:58.535Z,527.90
2022-11-19T20:13:24.937Z,522.33
2022-11-19T20:15:51.320Z,497.53
2022-11-19T20:18:17.694Z,498.13
2022-11-19T20:20:44.086Z,492.10
2022-11-19T20:23:10.462Z,505.00
2022-11-19T20:25:36.852Z,495.40
2022-11-19T20:28:03.632Z,512.57
2022-11-19T20:30:30.031Z,520.87
2022-11-19T20:32:56.613Z,612.37
2022-11-19T20:35:23.014Z,595.63
2022-11-19T20:37:49.467Z,609.50
2022-11-19T20:40:15.881Z,623.13
2022-11-19T20:42:42.484Z,478.77
2022-11-19T20:45:08.865Z,481.73
2022-11-19T20:47:35.286Z,487.30
2022-11-19T20:50:01.677Z,486.23
2022-11-19T20:52:28.066Z,471.67
2022-11-19T20:54:54.455Z,484.30
2022-11-19T20:57:20.853Z,505.50
2022-11-19T20:59:47.238Z,611.67
2022-11-19T21:02:13.664Z,595.43
2022-11-19T21:04:40.082Z,597.60
2022-11-19T21:07:06.549Z,571.53
2022-11-19T21:09:33.042Z,609.93
2022-11-19T21:11:59.456Z,497.67
2022-11-19T21:14:25.840Z,467.40
2022-11-19T21:16:52.813Z,477.53
2022-11-19T21:19:19.759Z,468.80
2022-11-19T21:21:46.469Z,471.50
2022-11-19T21:24:12.847Z,470.73
2022-11-19T21:26:39.237Z,476.60
2022-11-19T21:29:05.634Z,476.03
2022-11-19T21:31:36.511Z,483.40
2022-11-19T21:34:03.573Z,478.73
2022-11-19T21:36:30.024Z,480.73
2022-11-19T21:38:56.415Z,487.43
2022-11-19T21:41:22.802Z,482.97
2022-11-19T21:43:49.195Z,489.03
2022-11-19T21:46:15.588Z,493.13
2022-11-19T21:48:41.980Z,489.57
2022-11-19T21:51:08.378Z,479.60
2022-11-19T21:53:34.752Z,490.73
2022-11-19T21:56:01.152Z,501.10
2022-11-19T21:58:27.532Z,516.13
2022-11-19T22:00:53.983Z,519.60
2022-11-19T22:03:20.385Z,605.60
2022-11-19T22:05:46.780Z,579.13
2022-11-19T22:08:13.162Z,539.30
2022-11-19T22:10:45.248Z,533.27
2022-11-19T22:13:11.849Z,524.80
2022-11-19T22:15:38.259Z,538.07
2022-11-19T22:18:04.640Z,537.30
2022-11-19T22:20:31.023Z,581.33
2022-11-19T22:22:57.404Z,559.60
2022-11-19T22:25:23.786Z,520.80
2022-11-19T22:27:50.173Z,510.53
2022-11-19T22:30:16.592Z,508.10
2022-11-19T22:32:42.982Z,500.13
2022-11-19T22:35:09.372Z,500.30
2022-11-19T22:37:35.797Z,493.37
2022-11-19T22:40:02.176Z,491.70
2022-11-19T22:42:28.586Z,490.37
2022-11-19T22:44:54.966Z,489.53
2022-11-19T22:47:21.362Z,495.93
2022-11-19T22:49:47.740Z,484.83
2022-11-19T22:52:14.145Z,491.00
2022-11-19T22:54:41.974Z,489.33
2022-11-19T22:57:08.479Z,495.97
2022-11-19T22:59:34.866Z,490.53
2022-11-19T23:02:01.254Z,495.10
2022-11-19T23:04:27.792Z,498.07
2022-11-19T23:06:54.186Z,494.17
2022-11-19T23:09:20.982Z,494.70
2022-11-19T23:11:47.505Z,498.63
2022-11-19T23:14:13.901Z,495.10
2022-11-19T23:16:40.294Z,503.03
2022-11-19T23:19:06.664Z,500.63
2022-11-19T23:21:33.056Z,503.40
2022-11-19T23:23:59.433Z,513.30
2022-11-19T23:26:25.828Z,516.13
2022-11-19T23:28:52.310Z,636.77
2022-11-19T23:31:18.703Z,640.60
2022-11-19T23:33:45.098Z,599.30
2022-11-19T23:36:11.501Z,537.73
2022-11-19T23:38:37.886Z,504.53
2022-11-19T23:41:04.272Z,521.17
2022-11-19T23:43:30.697Z,596.80
2022-11-19T23:45:57.086Z,626.97
2022-11-19T23:48:24.141Z,627.17
2022-11-19T23:50:50.523Z,647.00
2022-11-19T23:53:16.944Z,508.10
2022-11-19T23:55:43.354Z,591.47
2022-11-19T23:58:09.747Z,599.80
